sensor_id;sensor_type;location;lat;lon;timestamp;pressure;altitude;pressure_sealevel;temperature;humidity
55010;BME280;40903;51.638;7.528;2022-09-03T00:00:49;100684.47;;;16.25;50.33
55010;BME280;40903;51.638;7.528;2022-09-03T00:03:30;100678.81;;;16.21;50.52
55010;BME280;40903;51.638;7.528;2022-09-03T00:06:19;100677.03;;;16.17;50.43
55010;BME280;40903;51.638;7.528;2022-09-03T00:09:22;100672.19;;;16.14;50.48
55010;BME280;40903;51.638;7.528;2022-09-03T00:12:10;100663.31;;;16.08;50.86
55010;BME280;40903;51.638;7.528;2022-09-03T00:14:42;100668.34;;;16.06;50.82
55010;BME280;40903;51.638;7.528;2022-09-03T00:17:17;100669.78;;;16.04;50.98
55010;BME280;40903;51.638;7.528;2022-09-03T00:22:55;100665.59;;;15.98;51.58
55010;BME280;40903;51.638;7.528;2022-09-03T00:28:18;100668.38;;;15.89;51.37
55010;BME280;40903;51.638;7.528;2022-09-03T00:30:46;100676.47;;;15.86;51.52
55010;BME280;40903;51.638;7.528;2022-09-03T00:33:23;100676.28;;;15.82;51.28
55010;BME280;40903;51.638;7.528;2022-09-03T00:38:27;100667.75;;;15.76;51.72
55010;BME280;40903;51.638;7.528;2022-09-03T00:41:08;100673.56;;;15.74;52.08
55010;BME280;40903;51.638;7.528;2022-09-03T00:57:33;100675.03;;;15.63;51.80
55010;BME280;40903;51.638;7.528;2022-09-03T01:00:08;100671.00;;;15.61;51.94
55010;BME280;40903;51.638;7.528;2022-09-03T01:02:55;100670.50;;;15.59;52.12
55010;BME280;40903;51.638;7.528;2022-09-03T01:09:25;100674.88;;;15.51;52.48
55010;BME280;40903;51.638;7.528;2022-09-03T01:11:58;100679.06;;;15.49;52.50
55010;BME280;40903;51.638;7.528;2022-09-03T01:14:28;100666.28;;;15.44;52.72
55010;BME280;40903;51.638;7.528;2022-09-03T01:19:46;100671.50;;;15.37;52.92
55010;BME280;40903;51.638;7.528;2022-09-03T01:39:06;100681.31;;;15.21;53.65
55010;BME280;40903;51.638;7.528;2022-09-03T01:48:03;100676.09;;;15.11;53.63
55010;BME280;40903;51.638;7.528;2022-09-03T01:50:45;100675.94;;;15.08;54.01
55010;BME280;40903;51.638;7.528;2022-09-03T01:58:46;100668.50;;;15.00;54.21
55010;BME280;40903;51.638;7.528;2022-09-03T02:01:24;100671.91;;;14.97;54.81
55010;BME280;40903;51.638;7.528;2022-09-03T02:03:52;100675.25;;;14.94;54.44
55010;BME280;40903;51.638;7.528;2022-09-03T02:06:25;100665.41;;;14.93;54.42
55010;BME280;40903;51.638;7.528;2022-09-03T02:08:50;100672.50;;;14.94;54.79
55010;BME280;40903;51.638;7.528;2022-09-03T02:11:15;100671.53;;;14.90;54.53
55010;BME280;40903;51.638;7.528;2022-09-03T02:13:44;100669.44;;;14.87;54.64
55010;BME280;40903;51.638;7.528;2022-09-03T02:16:15;100667.81;;;14.86;54.69
55010;BME280;40903;51.638;7.528;2022-09-03T02:18:44;100663.13;;;14.86;54.75
55010;BME280;40903;51.638;7.528;2022-09-03T02:21:17;100665.72;;;14.83;55.29
55010;BME280;40903;51.638;7.528;2022-09-03T02:23:44;100666.84;;;14.82;55.40
55010;BME280;40903;51.638;7.528;2022-09-03T02:26:11;100663.09;;;14.78;55.19
55010;BME280;40903;51.638;7.528;2022-09-03T02:28:37;100659.09;;;14.75;55.31
55010;BME280;40903;51.638;7.528;2022-09-03T02:31:03;100662.47;;;14.72;55.58
55010;BME280;40903;51.638;7.528;2022-09-03T02:33:30;100671.31;;;14.69;55.56
55010;BME280;40903;51.638;7.528;2022-09-03T02:35:56;100674.88;;;14.70;55.42
55010;BME280;40903;51.638;7.528;2022-09-03T02:38:23;100668.56;;;14.69;55.54
55010;BME280;40903;51.638;7.528;2022-09-03T02:40:52;100673.56;;;14.67;55.59
55010;BME280;40903;51.638;7.528;2022-09-03T02:43:33;100673.41;;;14.64;55.79
55010;BME280;40903;51.638;7.528;2022-09-03T02:46:04;100663.06;;;14.61;56.01
55010;BME280;40903;51.638;7.528;2022-09-03T02:48:32;100669.69;;;14.60;55.97
55010;BME280;40903;51.638;7.528;2022-09-03T02:50:58;100669.69;;;14.60;56.16
55010;BME280;40903;51.638;7.528;2022-09-03T02:53:23;100668.41;;;14.57;56.28
55010;BME280;40903;51.638;7.528;2022-09-03T02:55:49;100664.84;;;14.57;56.34
55010;BME280;40903;51.638;7.528;2022-09-03T02:58:14;100664.84;;;14.57;56.35
55010;BME280;40903;51.638;7.528;2022-09-03T03:00:40;100664.84;;;14.57;56.63
55010;BME280;40903;51.638;7.528;2022-09-03T03:03:05;100662.91;;;14.57;56.34
55010;BME280;40903;51.638;7.528;2022-09-03T03:05:50;100657.25;;;14.54;56.53
55010;BME280;40903;51.638;7.528;2022-09-03T03:08:17;100657.88;;;14.51;56.37
55010;BME280;40903;51.638;7.528;2022-09-03T03:10:46;100657.38;;;14.49;56.55
55010;BME280;40903;51.638;7.528;2022-09-03T03:13:13;100656.38;;;14.45;56.71
55010;BME280;40903;51.638;7.528;2022-09-03T03:15:40;100655.59;;;14.44;56.58
55010;BME280;40903;51.638;7.528;2022-09-03T03:18:05;100661.56;;;14.46;56.42
55010;BME280;40903;51.638;7.528;2022-09-03T03:20:32;100654.78;;;14.44;56.70
55010;BME280;40903;51.638;7.528;2022-09-03T03:23:00;100655.59;;;14.44;56.51
55010;BME280;40903;51.638;7.528;2022-09-03T03:25:26;100650.09;;;14.44;57.03
55010;BME280;40903;51.638;7.528;2022-09-03T03:27:53;100657.22;;;14.45;56.71
55010;BME280;40903;51.638;7.528;2022-09-03T03:30:21;100653.16;;;14.43;56.88
55010;BME280;40903;51.638;7.528;2022-09-03T03:32:47;100653.78;;;14.40;56.79
55010;BME280;40903;51.638;7.528;2022-09-03T03:35:13;100653.78;;;14.40;57.12
55010;BME280;40903;51.638;7.528;2022-09-03T03:37:38;100654.59;;;14.40;57.07
55010;BME280;40903;51.638;7.528;2022-09-03T03:40:04;100652.19;;;14.39;56.95
55010;BME280;40903;51.638;7.528;2022-09-03T03:42:34;100647.34;;;14.36;56.94
55010;BME280;40903;51.638;7.528;2022-09-03T03:45:00;100657.19;;;14.37;57.31
55010;BME280;40903;51.638;7.528;2022-09-03T03:47:28;100644.59;;;14.36;56.99
55010;BME280;40903;51.638;7.528;2022-09-03T03:49:55;100652.81;;;14.36;57.19
55010;BME280;40903;51.638;7.528;2022-09-03T03:52:20;100651.19;;;14.35;57.21
55010;BME280;40903;51.638;7.528;2022-09-03T03:54:45;100647.63;;;14.34;57.39
55010;BME280;40903;51.638;7.528;2022-09-03T03:57:13;100637.50;;;14.35;57.27
55010;BME280;40903;51.638;7.528;2022-09-03T03:59:38;100636.19;;;14.32;57.37
55010;BME280;40903;51.638;7.528;2022-09-03T04:02:04;100640.69;;;14.28;57.49
55010;BME280;40903;51.638;7.528;2022-09-03T04:04:29;100639.38;;;14.26;57.45
55010;BME280;40903;51.638;7.528;2022-09-03T04:06:54;100635.19;;;14.28;57.43
55010;BME280;40903;51.638;7.528;2022-09-03T04:09:19;100634.38;;;14.28;57.49
55010;BME280;40903;51.638;7.528;2022-09-03T04:11:45;100636.00;;;14.29;57.42
55010;BME280;40903;51.638;7.528;2022-09-03T04:14:10;100636.19;;;14.32;57.59
55010;BME280;40903;51.638;7.528;2022-09-03T04:16:35;100638.44;;;14.30;57.46
55010;BME280;40903;51.638;7.528;2022-09-03T04:19:01;100636.31;;;14.27;57.68
55010;BME280;40903;51.638;7.528;2022-09-03T04:21:28;100628.41;;;14.26;57.54
55010;BME280;40903;51.638;7.528;2022-09-03T04:23:55;100635.31;;;14.23;57.78
55010;BME280;40903;51.638;7.528;2022-09-03T04:26:29;100630.16;;;14.22;58.20
55010;BME280;40903;51.638;7.528;2022-09-03T04:28:56;100631.16;;;14.26;57.68
55010;BME280;40903;51.638;7.528;2022-09-03T04:31:21;100615.31;;;14.23;57.60
55010;BME280;40903;51.638;7.528;2022-09-03T04:33:47;100613.72;;;14.22;57.88
55010;BME280;40903;51.638;7.528;2022-09-03T04:36:15;100622.88;;;14.17;58.30
55010;BME280;40903;51.638;7.528;2022-09-03T04:38:42;100622.06;;;14.17;58.51
55010;BME280;40903;51.638;7.528;2022-09-03T04:41:10;100626.53;;;14.13;58.60
55010;BME280;40903;51.638;7.528;2022-09-03T04:43:36;100622.19;;;14.12;58.74
55010;BME280;40903;51.638;7.528;2022-09-03T04:46:04;100622.00;;;14.08;58.76
55010;BME280;40903;51.638;7.528;2022-09-03T04:48:33;100622.81;;;14.09;59.00
55010;BME280;40903;51.638;7.528;2022-09-03T04:51:09;100624.56;;;14.05;58.81
55010;BME280;40903;51.638;7.528;2022-09-03T04:53:37;100619.41;;;14.03;59.03
55010;BME280;40903;51.638;7.528;2022-09-03T04:56:11;100623.56;;;14.01;59.21
55010;BME280;40903;51.638;7.528;2022-09-03T04:58:37;100621.47;;;13.98;59.41
55010;BME280;40903;51.638;7.528;2022-09-03T05:01:10;100621.47;;;13.98;59.39
55010;BME280;40903;51.638;7.528;2022-09-03T05:03:35;100615.69;;;13.99;59.92
55010;BME280;40903;51.638;7.528;2022-09-03T05:06:02;100621.94;;;14.00;59.54
55010;BME280;40903;51.638;7.528;2022-09-03T05:08:27;100624.69;;;14.00;59.51
55010;BME280;40903;51.638;7.528;2022-09-03T05:10:59;100623.91;;;13.99;59.77
55010;BME280;40903;51.638;7.528;2022-09-03T05:13:26;100628.41;;;14.04;59.85
55010;BME280;40903;51.638;7.528;2022-09-03T05:15:58;100626.50;;;14.04;59.70
55010;BME280;40903;51.638;7.528;2022-09-03T05:18:23;100624.72;;;14.08;59.50
55010;BME280;40903;51.638;7.528;2022-09-03T05:20:57;100628.28;;;14.09;59.53
55010;BME280;40903;51.638;7.528;2022-09-03T05:23:24;100631.22;;;14.12;59.70
55010;BME280;40903;51.638;7.528;2022-09-03T05:26:01;100631.41;;;14.16;59.93
55010;BME280;40903;51.638;7.528;2022-09-03T05:28:28;100625.63;;;14.17;59.71
55010;BME280;40903;51.638;7.528;2022-09-03T05:31:06;100631.16;;;14.26;59.16
55010;BME280;40903;51.638;7.528;2022-09-03T05:33:36;100629.38;;;14.30;58.96
55010;BME280;40903;51.638;7.528;2022-09-03T05:36:04;100622.75;;;14.31;58.94
55010;BME280;40903;51.638;7.528;2022-09-03T05:38:30;100628.91;;;14.36;59.05
55010;BME280;40903;51.638;7.528;2022-09-03T05:41:05;100624.41;;;14.40;59.13
55010;BME280;40903;51.638;7.528;2022-09-03T05:43:31;100623.00;;;14.51;58.68
55010;BME280;40903;51.638;7.528;2022-09-03T05:45:58;100618.81;;;14.54;58.59
55010;BME280;40903;51.638;7.528;2022-09-03T05:48:28;100619.50;;;14.59;58.22
55010;BME280;40903;51.638;7.528;2022-09-03T05:51:01;100621.25;;;14.64;58.35
55010;BME280;40903;51.638;7.528;2022-09-03T05:53:27;100621.13;;;14.69;58.70
55010;BME280;40903;51.638;7.528;2022-09-03T05:56:01;100609.69;;;14.75;58.70
55010;BME280;40903;51.638;7.528;2022-09-03T05:58:38;100611.94;;;14.82;57.96
55010;BME280;40903;51.638;7.528;2022-09-03T06:01:19;100623.59;;;14.87;57.70
55010;BME280;40903;51.638;7.528;2022-09-03T06:03:47;100622.00;;;14.95;57.81
55010;BME280;40903;51.638;7.528;2022-09-03T06:06:14;100619.56;;;15.02;57.87
55010;BME280;40903;51.638;7.528;2022-09-03T06:08:40;100620.38;;;15.11;57.29
55010;BME280;40903;51.638;7.528;2022-09-03T06:11:07;100622.00;;;15.20;56.92
55010;BME280;40903;51.638;7.528;2022-09-03T06:13:34;100627.00;;;15.27;56.85
55010;BME280;40903;51.638;7.528;2022-09-03T06:16:03;100627.19;;;15.39;56.38
55010;BME280;40903;51.638;7.528;2022-09-03T06:18:29;100625.25;;;15.48;56.43
55010;BME280;40903;51.638;7.528;2022-09-03T06:20:55;100627.66;;;15.58;56.13
55010;BME280;40903;51.638;7.528;2022-09-03T06:23:22;100628.44;;;15.67;56.45
55010;BME280;40903;51.638;7.528;2022-09-03T06:26:12;100631.34;;;15.78;56.32
55010;BME280;40903;51.638;7.528;2022-09-03T06:28:35;100634.72;;;15.92;54.89
55010;BME280;40903;51.638;7.528;2022-09-03T06:31:01;100622.91;;;16.00;55.02
55010;BME280;40903;51.638;7.528;2022-09-03T06:33:30;100622.69;;;16.14;54.54
55010;BME280;40903;51.638;7.528;2022-09-03T06:35:59;100621.31;;;16.28;54.00
55010;BME280;40903;51.638;7.528;2022-09-03T06:38:26;100628.72;;;16.45;54.16
55010;BME280;40903;51.638;7.528;2022-09-03T06:40:53;100623.34;;;16.57;53.67
55010;BME280;40903;51.638;7.528;2022-09-03T06:43:19;100625.16;;;16.73;53.86
55010;BME280;40903;51.638;7.528;2022-09-03T06:45:51;100626.69;;;16.91;53.45
55010;BME280;40903;51.638;7.528;2022-09-03T06:48:17;100624.13;;;17.07;52.82
55010;BME280;40903;51.638;7.528;2022-09-03T06:50:42;100624.34;;;17.22;52.52
55010;BME280;40903;51.638;7.528;2022-09-03T06:53:07;100631.38;;;17.40;51.97
55010;BME280;40903;51.638;7.528;2022-09-03T06:55:33;100638.19;;;17.55;51.05
55010;BME280;40903;51.638;7.528;2022-09-03T06:57:59;100636.09;;;17.72;50.61
55010;BME280;40903;51.638;7.528;2022-09-03T07:00:24;100634.31;;;17.88;50.51
55010;BME280;40903;51.638;7.528;2022-09-03T07:02:54;100635.97;;;18.01;49.93
55010;BME280;40903;51.638;7.528;2022-09-03T07:05:22;100635.16;;;18.12;49.61
55010;BME280;40903;51.638;7.528;2022-09-03T07:07:49;100637.97;;;18.24;48.38
55010;BME280;40903;51.638;7.528;2022-09-03T07:10:14;100635.72;;;18.38;49.00
55010;BME280;40903;51.638;7.528;2022-09-03T07:12:44;100642.84;;;18.51;48.32
55010;BME280;40903;51.638;7.528;2022-09-03T07:15:10;100646.53;;;18.67;47.48
55010;BME280;40903;51.638;7.528;2022-09-03T07:17:36;100642.63;;;18.80;47.33
55010;BME280;40903;51.638;7.528;2022-09-03T07:20:01;100635.22;;;18.96;47.60
55010;BME280;40903;51.638;7.528;2022-09-03T07:22:27;100645.56;;;19.11;47.08
55010;BME280;40903;51.638;7.528;2022-09-03T07:24:52;100636.94;;;19.25;46.59
55010;BME280;40903;51.638;7.528;2022-09-03T07:27:18;100637.69;;;19.37;46.56
55010;BME280;40903;51.638;7.528;2022-09-03T07:29:47;100634.19;;;19.52;46.93
55010;BME280;40903;51.638;7.528;2022-09-03T07:32:12;100636.19;;;19.67;45.56
55010;BME280;40903;51.638;7.528;2022-09-03T07:34:38;100637.41;;;19.82;44.86
55010;BME280;40903;51.638;7.528;2022-09-03T07:37:03;100633.75;;;19.93;44.74
55010;BME280;40903;51.638;7.528;2022-09-03T07:39:32;100633.84;;;20.08;44.65
55010;BME280;40903;51.638;7.528;2022-09-03T07:42:01;100631.78;;;20.21;43.16
55010;BME280;40903;51.638;7.528;2022-09-03T07:44:27;100637.25;;;20.33;43.46
55010;BME280;40903;51.638;7.528;2022-09-03T07:46:52;100630.53;;;20.49;44.05
55010;BME280;40903;51.638;7.528;2022-09-03T07:49:19;100636.41;;;20.63;42.87
55010;BME280;40903;51.638;7.528;2022-09-03T07:51:52;100634.72;;;20.74;42.85
55010;BME280;40903;51.638;7.528;2022-09-03T07:54:19;100644.28;;;20.92;42.86
55010;BME280;40903;51.638;7.528;2022-09-03T07:56:47;100651.97;;;20.99;41.71
55010;BME280;40903;51.638;7.528;2022-09-03T07:59:15;100640.41;;;21.12;42.24
55010;BME280;40903;51.638;7.528;2022-09-03T08:01:46;100637.16;;;21.10;41.09
55010;BME280;40903;51.638;7.528;2022-09-03T08:04:13;100647.41;;;21.25;41.94
55010;BME280;40903;51.638;7.528;2022-09-03T08:06:45;100650.50;;;21.39;41.07
55010;BME280;40903;51.638;7.528;2022-09-03T08:09:12;100644.28;;;21.46;41.60
55010;BME280;40903;51.638;7.528;2022-09-03T08:11:41;100655.81;;;21.63;41.45
55010;BME280;40903;51.638;7.528;2022-09-03T08:14:11;100654.94;;;21.78;40.09
55010;BME280;40903;51.638;7.528;2022-09-03T08:16:45;100652.28;;;21.85;40.44
55010;BME280;40903;51.638;7.528;2022-09-03T08:19:15;100644.69;;;22.01;40.02
55010;BME280;40903;51.638;7.528;2022-09-03T08:21:42;100653.22;;;22.11;39.81
55010;BME280;40903;51.638;7.528;2022-09-03T08:24:08;100655.88;;;22.27;39.18
55010;BME280;40903;51.638;7.528;2022-09-03T08:26:39;100658.94;;;22.41;38.91
55010;BME280;40903;51.638;7.528;2022-09-03T08:29:07;100660.78;;;22.56;38.99
55010;BME280;40903;51.638;7.528;2022-09-03T08:31:34;100652.06;;;22.80;39.75
55010;BME280;40903;51.638;7.528;2022-09-03T08:34:01;100658.09;;;22.85;37.77
55010;BME280;40903;51.638;7.528;2022-09-03T08:36:31;100649.66;;;23.04;38.36
55010;BME280;40903;51.638;7.528;2022-09-03T08:39:00;100655.28;;;23.08;37.72
55010;BME280;40903;51.638;7.528;2022-09-03T08:50:10;100647.69;;;23.60;37.15
55010;BME280;40903;51.638;7.528;2022-09-03T08:52:54;100655.09;;;23.82;36.04
55010;BME280;40903;51.638;7.528;2022-09-03T08:55:30;100652.81;;;23.88;36.07
55010;BME280;40903;51.638;7.528;2022-09-03T08:58:12;100656.91;;;23.97;35.91
55010;BME280;40903;51.638;7.528;2022-09-03T09:03:56;100654.50;;;24.35;35.76
55010;BME280;40903;51.638;7.528;2022-09-03T09:22:48;100643.75;;;25.28;34.00
55010;BME280;40903;51.638;7.528;2022-09-03T09:25:19;100648.19;;;25.39;33.53
55010;BME280;40903;51.638;7.528;2022-09-03T09:28:22;100636.59;;;25.37;34.00
55010;BME280;40903;51.638;7.528;2022-09-03T09:30:50;100639.47;;;25.51;33.54
55010;BME280;40903;51.638;7.528;2022-09-03T09:33:17;100634.75;;;25.76;33.25
55010;BME280;40903;51.638;7.528;2022-09-03T09:35:45;100621.69;;;25.94;33.53
55010;BME280;40903;51.638;7.528;2022-09-03T09:38:11;100631.31;;;26.07;32.17
55010;BME280;40903;51.638;7.528;2022-09-03T09:40:42;100631.69;;;26.06;32.53
55010;BME280;40903;51.638;7.528;2022-09-03T09:43:18;100627.31;;;26.05;32.50
55010;BME280;40903;51.638;7.528;2022-09-03T09:45:47;100631.31;;;26.21;31.91
55010;BME280;40903;51.638;7.528;2022-09-03T09:48:29;100622.56;;;26.43;32.52
55010;BME280;40903;51.638;7.528;2022-09-03T09:51:10;100620.97;;;26.46;31.54
55010;BME280;40903;51.638;7.528;2022-09-03T09:53:37;100629.38;;;26.56;31.33
55010;BME280;40903;51.638;7.528;2022-09-03T09:56:03;100618.59;;;26.69;32.47
55010;BME280;40903;51.638;7.528;2022-09-03T09:58:31;100623.78;;;26.70;31.66
55010;BME280;40903;51.638;7.528;2022-09-03T10:01:10;100623.41;;;26.89;31.79
55010;BME280;40903;51.638;7.528;2022-09-03T10:03:54;100618.94;;;27.16;30.82
55010;BME280;40903;51.638;7.528;2022-09-03T10:06:25;100627.38;;;27.13;30.63
55010;BME280;40903;51.638;7.528;2022-09-03T10:09:11;100628.13;;;27.31;31.21
55010;BME280;40903;51.638;7.528;2022-09-03T10:11:40;100616.44;;;27.46;30.73
55010;BME280;40903;51.638;7.528;2022-09-03T10:14:12;100621.66;;;27.44;30.17
55010;BME280;40903;51.638;7.528;2022-09-03T10:16:44;100612.81;;;27.60;29.93
55010;BME280;40903;51.638;7.528;2022-09-03T10:19:23;100612.00;;;27.63;29.63
55010;BME280;40903;51.638;7.528;2022-09-03T10:22:04;100609.59;;;27.72;30.15
55010;BME280;40903;51.638;7.528;2022-09-03T10:27:21;100618.31;;;27.84;29.60
55010;BME280;40903;51.638;7.528;2022-09-03T10:29:47;100619.31;;;28.15;29.75
55010;BME280;40903;51.638;7.528;2022-09-03T10:35:15;100610.38;;;28.41;29.23
55010;BME280;40903;51.638;7.528;2022-09-03T10:40:43;100615.59;;;28.35;28.20
55010;BME280;40903;51.638;7.528;2022-09-03T10:46:32;100605.50;;;28.48;29.39
55010;BME280;40903;51.638;7.528;2022-09-03T10:52:01;100600.94;;;28.64;28.57
55010;BME280;40903;51.638;7.528;2022-09-03T10:54:49;100609.50;;;28.51;28.52
55010;BME280;40903;51.638;7.528;2022-09-03T11:00:20;100596.94;;;28.65;28.49
55010;BME280;40903;51.638;7.528;2022-09-03T11:05:54;100604.50;;;29.12;27.64
55010;BME280;40903;51.638;7.528;2022-09-03T11:08:25;100596.56;;;29.04;27.94
55010;BME280;40903;51.638;7.528;2022-09-03T11:11:13;100593.06;;;29.30;28.37
55010;BME280;40903;51.638;7.528;2022-09-03T11:13:43;100598.94;;;29.42;27.21
55010;BME280;40903;51.638;7.528;2022-09-03T11:16:11;100591.78;;;29.34;27.44
55010;BME280;40903;51.638;7.528;2022-09-03T11:18:48;100588.34;;;29.57;27.25
55010;BME280;40903;51.638;7.528;2022-09-03T11:21:17;100585.16;;;29.55;27.39
55010;BME280;40903;51.638;7.528;2022-09-03T11:23:44;100591.59;;;29.55;27.38
55010;BME280;40903;51.638;7.528;2022-09-03T11:26:11;100582.97;;;29.69;28.07
55010;BME280;40903;51.638;7.528;2022-09-03T11:36:51;100576.53;;;29.69;27.57
55010;BME280;40903;51.638;7.528;2022-09-03T11:42:03;100573.25;;;29.74;28.35
55010;BME280;40903;51.638;7.528;2022-09-03T11:44:43;100567.56;;;30.07;27.33
55010;BME280;40903;51.638;7.528;2022-09-03T11:47:19;100572.00;;;30.31;27.84
55010;BME280;40903;51.638;7.528;2022-09-03T11:49:47;100574.81;;;30.54;27.61
55010;BME280;40903;51.638;7.528;2022-09-03T11:52:23;100564.72;;;30.57;28.25
55010;BME280;40903;51.638;7.528;2022-09-03T11:54:49;100567.25;;;30.51;28.49
55010;BME280;40903;51.638;7.528;2022-09-03T11:57:15;100567.53;;;29.81;28.63
55010;BME280;40903;51.638;7.528;2022-09-03T11:59:47;100557.41;;;29.57;29.28
55010;BME280;40903;51.638;7.528;2022-09-03T12:04:49;100569.69;;;29.36;29.25
55010;BME280;40903;51.638;7.528;2022-09-03T12:07:39;100564.66;;;29.24;29.71
55010;BME280;40903;51.638;7.528;2022-09-03T12:12:52;100561.78;;;29.28;29.25
55010;BME280;40903;51.638;7.528;2022-09-03T12:18:07;100561.72;;;29.31;29.45
55010;BME280;40903;51.638;7.528;2022-09-03T12:23:31;100554.16;;;29.28;29.04
55010;BME280;40903;51.638;7.528;2022-09-03T12:25:58;100550.47;;;29.35;31.33
55010;BME280;40903;51.638;7.528;2022-09-03T12:28:24;100556.59;;;29.26;29.99
55010;BME280;40903;51.638;7.528;2022-09-03T12:30:52;100554.31;;;29.14;30.08
55010;BME280;40903;51.638;7.528;2022-09-03T12:33:18;100551.53;;;29.11;31.01
55010;BME280;40903;51.638;7.528;2022-09-03T12:35:54;100559.72;;;28.98;30.12
55010;BME280;40903;51.638;7.528;2022-09-03T12:38:26;100551.50;;;28.77;30.71
55010;BME280;40903;51.638;7.528;2022-09-03T12:40:53;100549.25;;;28.62;31.05
55010;BME280;40903;51.638;7.528;2022-09-03T12:43:19;100550.56;;;28.51;31.04
55010;BME280;40903;51.638;7.528;2022-09-03T12:45:45;100543.41;;;28.43;31.85
55010;BME280;40903;51.638;7.528;2022-09-03T12:48:11;100549.38;;;28.48;31.89
55010;BME280;40903;51.638;7.528;2022-09-03T12:50:39;100544.63;;;28.42;31.23
55010;BME280;40903;51.638;7.528;2022-09-03T12:53:04;100544.22;;;28.43;31.53
55010;BME280;40903;51.638;7.528;2022-09-03T12:55:44;100543.41;;;28.43;31.59
55010;BME280;40903;51.638;7.528;2022-09-03T12:58:12;100546.31;;;28.32;31.47
55010;BME280;40903;51.638;7.528;2022-09-03T13:00:41;100544.72;;;28.31;31.85
55010;BME280;40903;51.638;7.528;2022-09-03T13:03:10;100548.69;;;28.30;31.48
55010;BME280;40903;51.638;7.528;2022-09-03T13:05:41;100539.94;;;28.21;32.24
55010;BME280;40903;51.638;7.528;2022-09-03T13:08:08;100540.19;;;28.44;31.69
55010;BME280;40903;51.638;7.528;2022-09-03T13:10:38;100536.47;;;28.54;32.40
55010;BME280;40903;51.638;7.528;2022-09-03T13:13:23;100545.63;;;28.61;31.40
55010;BME280;40903;51.638;7.528;2022-09-03T13:18:47;100535.28;;;28.95;30.21
55010;BME280;40903;51.638;7.528;2022-09-03T13:21:28;100545.41;;;29.19;30.51
55010;BME280;40903;51.638;7.528;2022-09-03T13:27:03;100528.84;;;29.62;29.50
55010;BME280;40903;51.638;7.528;2022-09-03T13:32:20;100537.59;;;29.37;29.31
55010;BME280;40903;51.638;7.528;2022-09-03T13:34:49;100554.44;;;29.37;29.24
55010;BME280;40903;51.638;7.528;2022-09-03T13:40:02;100539.19;;;29.38;29.51
55010;BME280;40903;51.638;7.528;2022-09-03T13:42:37;100543.69;;;29.29;29.97
55010;BME280;40903;51.638;7.528;2022-09-03T13:45:08;100547.34;;;29.26;29.99
55010;BME280;40903;51.638;7.528;2022-09-03T13:47:41;100542.69;;;29.16;30.27
55010;BME280;40903;51.638;7.528;2022-09-03T13:50:28;100542.03;;;29.01;30.82
55010;BME280;40903;51.638;7.528;2022-09-03T13:55:31;100531.09;;;29.10;30.82
55010;BME280;40903;51.638;7.528;2022-09-03T14:00:45;100526.44;;;29.30;30.04
55010;BME280;40903;51.638;7.528;2022-09-03T14:03:29;100528.00;;;29.31;30.78
55010;BME280;40903;51.638;7.528;2022-09-03T14:06:01;100537.94;;;29.09;30.98
55010;BME280;40903;51.638;7.528;2022-09-03T14:08:33;100540.44;;;29.00;30.72
55010;BME280;40903;51.638;7.528;2022-09-03T14:21:06;100535.44;;;28.31;32.64
55010;BME280;40903;51.638;7.528;2022-09-03T14:26:02;100530.78;;;28.17;32.88
55010;BME280;40903;51.638;7.528;2022-09-03T14:28:36;100530.41;;;28.12;33.18
55010;BME280;40903;51.638;7.528;2022-09-03T14:34:03;100541.44;;;27.82;33.55
55010;BME280;40903;51.638;7.528;2022-09-03T14:41:56;100538.81;;;27.47;34.29
55010;BME280;40903;51.638;7.528;2022-09-03T14:47:01;100540.88;;;27.32;34.86
55010;BME280;40903;51.638;7.528;2022-09-03T15:00:12;100543.53;;;27.60;34.65
55010;BME280;40903;51.638;7.528;2022-09-03T15:03:10;100552.75;;;27.64;34.42
55010;BME280;40903;51.638;7.528;2022-09-03T15:06:10;100545.09;;;27.68;35.35
55010;BME280;40903;51.638;7.528;2022-09-03T15:11:25;100537.41;;;27.90;34.40
55010;BME280;40903;51.638;7.528;2022-09-03T15:14:12;100540.88;;;28.04;34.84
55010;BME280;40903;51.638;7.528;2022-09-03T15:16:44;100537.22;;;28.14;33.79
55010;BME280;40903;51.638;7.528;2022-09-03T15:22:40;100551.22;;;28.18;33.34
55010;BME280;40903;51.638;7.528;2022-09-03T15:28:29;100549.38;;;27.97;34.36
55010;BME280;40903;51.638;7.528;2022-09-03T15:31:04;100546.66;;;27.83;33.85
55010;BME280;40903;51.638;7.528;2022-09-03T15:36:26;100552.75;;;27.64;34.22
55010;BME280;40903;51.638;7.528;2022-09-03T15:41:49;100549.66;;;27.41;35.70
55010;BME280;40903;51.638;7.528;2022-09-03T15:44:18;100562.94;;;27.27;35.09
55010;BME280;40903;51.638;7.528;2022-09-03T15:49:20;100554.19;;;26.90;36.03
55010;BME280;40903;51.638;7.528;2022-09-03T15:54:47;100557.41;;;26.78;35.80
55010;BME280;40903;51.638;7.528;2022-09-03T15:57:23;100559.44;;;26.74;36.21
55010;BME280;40903;51.638;7.528;2022-09-03T16:00:10;100560.22;;;26.78;36.22
55010;BME280;40903;51.638;7.528;2022-09-03T16:02:45;100557.81;;;26.80;36.08
55010;BME280;40903;51.638;7.528;2022-09-03T16:07:56;100568.63;;;26.64;36.00
55010;BME280;40903;51.638;7.528;2022-09-03T16:10:34;100562.63;;;26.58;35.91
55010;BME280;40903;51.638;7.528;2022-09-03T16:16:05;100563.47;;;26.52;37.09
55010;BME280;40903;51.638;7.528;2022-09-03T16:21:37;100567.81;;;26.42;36.76
55010;BME280;40903;51.638;7.528;2022-09-03T16:24:16;100562.63;;;26.41;37.05
55010;BME280;40903;51.638;7.528;2022-09-03T16:29:16;100564.22;;;26.38;36.78
55010;BME280;40903;51.638;7.528;2022-09-03T16:31:50;100568.22;;;26.37;37.20
55010;BME280;40903;51.638;7.528;2022-09-03T16:42:30;100578.59;;;25.95;36.86
55010;BME280;40903;51.638;7.528;2022-09-03T16:45:08;100580.56;;;25.88;36.72
55010;BME280;40903;51.638;7.528;2022-09-03T16:47:58;100574.88;;;25.70;37.22